Time;durP1;ratioP1;P1;durP2;ratioP2;P2;SDS_P1;SDS_P2;PMS_P1;PMS_P2;Temp;Humidity;BMP_temperature;BMP_pressure;BME280_temperature;BME280_humidity;BME280_pressure;Samples;Min_cycle;Max_cycle;Signal;HPM_P1;HPM_P2
2022/09/03 00:00:34;;;;;;;2.50;2.30;;;;;;;17.49;63.98;155857.09;5088502;28;20446;-76
2022/09/03 00:03:04;;;;;;;2.80;2.60;;;;;;;17.45;63.98;155845.34;5088969;28;20495;-76
2022/09/03 00:05:37;;;;;;;2.50;2.30;;;;;;;17.52;64.31;155863.59;5071461;28;20539;-77
2022/09/03 00:08:08;;;;;;;3.00;2.77;;;;;;;17.50;64.14;155858.38;5071843;28;20465;-77
2022/09/03 00:10:43;;;;;;;2.30;2.10;;;;;;;17.53;64.24;155867.53;5072783;28;20787;-76
2022/09/03 00:13:14;;;;;;;2.70;2.50;;;;;;;17.56;64.06;155875.34;5071625;28;20431;-76
2022/09/03 00:15:42;;;;;;;2.80;2.40;;;;;;;17.54;64.12;155870.16;5072806;28;20438;-77
2022/09/03 00:18:12;;;;;;;3.10;2.80;;;;;;;17.56;64.30;155874.03;5071545;28;20700;-77
2022/09/03 00:20:42;;;;;;;3.70;2.20;;;;;;;17.53;64.15;155866.22;5088052;28;20477;-77
2022/09/03 00:23:14;;;;;;;2.50;2.30;;;;;;;17.61;63.68;155887.03;5088352;28;20532;-77
2022/09/03 00:25:45;;;;;;;5.00;2.33;;;;;;;17.64;63.56;155894.84;5088026;28;20477;-76
2022/09/03 00:28:14;;;;;;;2.50;2.30;;;;;;;17.65;63.86;155897.47;5088405;28;20922;-77
2022/09/03 00:30:45;;;;;;;3.40;2.70;;;;;;;17.65;63.60;155897.47;5087855;28;20442;-77
2022/09/03 00:33:16;;;;;;;2.60;2.40;;;;;;;17.63;64.18;155893.53;5072493;28;20426;-77
2022/09/03 00:35:47;;;;;;;2.73;2.50;;;;;;;17.57;64.29;155877.97;5072392;28;20441;-77
2022/09/03 00:38:14;;;;;;;2.93;2.40;;;;;;;17.56;64.11;155874.03;5070916;28;20442;-77
2022/09/03 00:40:56;;;;;;;6.83;2.60;;;;;;;17.58;64.44;155879.22;5069818;28;20452;-77
2022/09/03 00:43:33;;;;;;;3.03;2.03;;;;;;;17.49;64.76;155855.78;5054324;28;20418;-76
2022/09/03 00:46:05;;;;;;;2.63;2.43;;;;;;;17.66;63.98;155900.06;5072063;28;20474;-77
2022/09/03 00:48:40;;;;;;;2.53;2.33;;;;;;;17.71;64.08;155913.13;5087932;28;20442;-77
2022/09/03 00:51:16;;;;;;;2.60;2.40;;;;;;;17.69;64.23;155906.56;5072472;28;20438;-76
2022/09/03 00:53:51;;;;;;;4.73;2.43;;;;;;;17.72;63.61;155915.69;5072126;28;20418;-76
2022/09/03 00:56:24;;;;;;;2.77;2.57;;;;;;;17.67;64.03;155902.69;5087401;28;20521;-76
2022/09/03 00:58:58;;;;;;;2.50;2.30;;;;;;;17.64;64.07;155894.84;5087361;28;20533;-77
2022/09/03 01:01:30;;;;;;;3.00;2.70;;;;;;;17.71;64.16;155913.13;5087606;28;20807;-76
2022/09/03 01:04:08;;;;;;;3.20;2.90;;;;;;;17.68;64.22;155903.97;5070841;28;20437;-76
2022/09/03 01:06:42;;;;;;;2.60;2.40;;;;;;;17.66;64.28;155900.06;5072345;28;20898;-76
2022/09/03 01:09:21;;;;;;;4.60;2.40;;;;;;;17.52;64.65;155864.91;5087300;28;20429;-77
2022/09/03 01:11:58;;;;;;;3.03;2.40;;;;;;;17.53;64.75;155867.53;5070952;28;20503;-77
2022/09/03 01:14:31;;;;;;;3.17;2.87;;;;;;;17.44;65.24;155842.75;5071919;28;20438;-77
2022/09/03 01:17:03;;;;;;;2.60;2.40;;;;;;;17.61;64.52;155887.03;5070833;28;20452;-77
2022/09/03 01:19:58;;;;;;;2.93;2.63;;;;;;;17.64;64.83;155894.84;5071596;28;20414;-77
2022/09/03 01:22:43;;;;;;;5.30;2.30;;;;;;;17.64;65.01;155894.84;5070630;28;20441;-76
2022/09/03 01:25:17;;;;;;;3.03;2.50;;;;;;;17.55;65.28;155871.47;5070427;28;20531;-76
2022/09/03 01:28:08;;;;;;;2.77;2.57;;;;;;;17.40;65.63;155832.31;5071791;28;20457;-77
2022/09/03 01:30:39;;;;;;;2.40;2.20;;;;;;;17.38;66.20;155827.13;5070021;28;20464;-77
2022/09/03 01:33:13;;;;;;;3.37;3.00;;;;;;;17.36;66.19;155821.94;5071864;28;20846;-77
2022/09/03 01:35:44;;;;;;;2.60;2.40;;;;;;;17.36;65.86;155823.25;5087363;28;20441;-77
2022/09/03 01:38:20;;;;;;;2.60;2.40;;;;;;;17.46;65.90;155849.25;5070306;28;20425;-76
2022/09/03 01:40:54;;;;;;;2.77;2.50;;;;;;;17.37;66.33;155825.81;5083472;28;20453;-77
2022/09/03 01:43:35;;;;;;;2.40;2.20;;;;;;;17.25;67.19;155793.28;5051554;28;20447;-77
2022/09/03 01:46:04;;;;;;;2.70;2.50;;;;;;;17.31;66.86;155808.91;5050299;28;20993;-77
2022/09/03 01:48:45;;;;;;;3.43;2.77;;;;;;;17.26;66.86;155795.91;5066478;28;20940;-77
2022/09/03 01:51:19;;;;;;;2.93;2.33;;;;;;;17.24;66.87;155790.66;5073647;28;20980;-76
2022/09/03 01:54:28;;;;;;;2.87;2.67;;;;;;;17.20;67.52;155781.59;5091704;28;20425;-76
2022/09/03 01:57:27;;;;;;;3.30;2.63;;;;;;;17.27;67.04;155798.47;5057424;28;20513;-77
2022/09/03 01:59:59;;;;;;;2.60;2.40;;;;;;;17.24;66.86;155790.66;5041220;28;20555;-77
2022/09/03 02:02:27;;;;;;;3.33;2.60;;;;;;;17.20;67.18;155780.28;5075223;28;20499;-77
2022/09/03 02:05:00;;;;;;;3.20;2.70;;;;;;;17.21;67.30;155784.16;5090905;28;20450;-77
2022/09/03 02:07:32;;;;;;;5.43;2.67;;;;;;;17.23;67.56;155788.09;5075357;28;20426;-77
2022/09/03 02:09:59;;;;;;;2.90;2.60;;;;;;;17.18;67.86;155775.09;5073592;28;20430;-77
2022/09/03 02:12:26;;;;;;;2.70;2.50;;;;;;;17.13;67.87;155762.06;5075524;28;20467;-77
2022/09/03 02:14:53;;;;;;;2.60;2.40;;;;;;;17.26;67.19;155795.91;5074121;28;20532;-76
2022/09/03 02:17:21;;;;;;;3.13;2.93;;;;;;;17.22;67.62;155786.78;5075738;28;20526;-77
2022/09/03 02:19:48;;;;;;;2.80;2.60;;;;;;;17.12;68.04;155760.78;5090374;28;20441;-77
2022/09/03 02:22:14;;;;;;;3.07;2.87;;;;;;;17.10;67.89;155754.25;5090337;28;20563;-77
2022/09/03 02:24:41;;;;;;;3.73;2.83;;;;;;;17.04;68.29;155739.94;5090583;28;20876;-76
2022/09/03 02:27:08;;;;;;;3.77;3.13;;;;;;;17.00;68.54;155729.50;5073869;28;20820;-77
2022/09/03 02:29:34;;;;;;;3.60;3.17;;;;;;;17.10;68.38;155754.25;5074565;28;20426;-77
2022/09/03 02:32:01;;;;;;;3.20;2.90;;;;;;;17.10;68.38;155754.25;5073190;28;20539;-76
2022/09/03 02:34:30;;;;;;;4.30;3.10;;;;;;;17.07;68.44;155746.44;5073512;28;20783;-77
2022/09/03 02:36:57;;;;;;;3.20;2.83;;;;;;;16.99;68.74;155728.25;5090564;28;20537;-77
2022/09/03 02:39:23;;;;;;;3.40;2.70;;;;;;;16.93;69.17;155712.63;5065793;28;20806;-76
2022/09/03 02:41:51;;;;;;;3.30;3.00;;;;;;;16.89;69.06;155702.19;5055209;28;20431;-76
2022/09/03 02:44:22;;;;;;;3.30;2.97;;;;;;;16.84;69.88;155687.88;5087308;28;20437;-76
2022/09/03 02:46:52;;;;;;;3.40;2.90;;;;;;;16.79;69.66;155674.88;5055273;28;20854;-76
2022/09/03 02:49:18;;;;;;;3.13;2.93;;;;;;;16.77;71.13;155670.97;5036289;28;20431;-77
2022/09/03 02:51:47;;;;;;;3.40;3.10;;;;;;;16.82;69.81;155684.00;5086905;28;20451;-76
2022/09/03 02:54:14;;;;;;;3.47;3.17;;;;;;;16.87;69.95;155697.00;5086639;28;20447;-77
2022/09/03 02:56:40;;;;;;;5.73;2.80;;;;;;;16.83;70.18;155685.31;5103410;28;20572;-77
2022/09/03 02:59:08;;;;;;;3.47;2.97;;;;;;;16.89;69.87;155702.19;5073050;28;20448;-76
2022/09/03 03:01:36;;;;;;;3.47;3.17;;;;;;;16.90;69.60;155704.81;5073277;28;20548;-76
2022/09/03 03:04:03;;;;;;;3.40;2.90;;;;;;;16.72;70.79;155657.97;5072983;28;20438;-77
2022/09/03 03:06:30;;;;;;;3.23;2.93;;;;;;;16.65;71.16;155639.78;5074066;28;21019;-76
2022/09/03 03:08:58;;;;;;;3.87;3.57;;;;;;;16.76;70.83;155668.38;5072860;28;20963;-76
2022/09/03 03:11:26;;;;;;;3.80;3.40;;;;;;;16.76;70.74;155668.38;5089699;28;20485;-76
2022/09/03 03:13:52;;;;;;;3.63;3.23;;;;;;;16.76;70.96;155667.09;5072636;28;20434;-76
2022/09/03 03:16:19;;;;;;;3.70;3.40;;;;;;;16.62;71.29;155631.97;5074335;28;20434;-76
2022/09/03 03:18:46;;;;;;;3.30;3.10;;;;;;;16.60;71.72;155626.72;5074144;28;20521;-76
2022/09/03 03:21:15;;;;;;;3.30;3.00;;;;;;;16.52;72.47;155605.88;5072397;28;20450;-76
2022/09/03 03:23:42;;;;;;;3.50;3.20;;;;;;;16.65;72.01;155638.47;5073832;28;20423;-76
2022/09/03 03:26:12;;;;;;;4.37;3.30;;;;;;;16.53;72.25;155608.53;5072782;28;20990;-76
2022/09/03 03:28:41;;;;;;;4.00;3.70;;;;;;;16.52;72.55;155605.88;5072651;28;20541;-77
2022/09/03 03:31:08;;;;;;;3.43;3.13;;;;;;;16.36;72.88;155564.28;5105639;28;20974;-77
2022/09/03 03:33:35;;;;;;;3.60;3.30;;;;;;;16.35;73.00;155561.66;5072532;28;20439;-76
2022/09/03 03:36:06;;;;;;;3.43;3.13;;;;;;;16.41;72.93;155578.56;5089407;28;20541;-76
2022/09/03 03:38:33;;;;;;;3.47;3.17;;;;;;;16.43;73.21;155583.78;5072019;28;20441;-76
2022/09/03 03:41:00;;;;;;;3.73;3.30;;;;;;;16.32;73.29;155555.16;5073213;28;20438;-76
2022/09/03 03:43:28;;;;;;;5.50;3.20;;;;;;;16.31;73.67;155552.56;5073492;28;20781;-76
2022/09/03 03:45:58;;;;;;;3.40;3.10;;;;;;;16.27;73.74;155540.84;5106107;28;20470;-76
2022/09/03 03:48:26;;;;;;;5.17;3.47;;;;;;;16.29;74.03;155546.06;5073337;28;20781;-76
2022/09/03 03:50:53;;;;;;;3.20;2.90;;;;;;;16.35;73.74;155561.66;5073135;28;20781;-77
2022/09/03 03:53:20;;;;;;;3.70;3.40;;;;;;;16.22;74.38;155529.16;5073452;28;20517;-76
2022/09/03 03:55:54;;;;;;;3.60;3.30;;;;;;;16.38;74.36;155569.47;5105755;28;20466;-76
2022/09/03 03:58:21;;;;;;;4.77;3.03;;;;;;;16.29;74.83;155546.06;5072144;28;20433;-76
2022/09/03 04:00:49;;;;;;;3.47;3.07;;;;;;;16.25;75.43;155535.66;5073158;28;20730;-76
2022/09/03 04:03:16;;;;;;;3.77;3.47;;;;;;;16.21;76.09;155525.25;5071658;28;20446;-76
2022/09/03 04:05:43;;;;;;;3.63;3.30;;;;;;;16.19;76.60;155520.03;5073083;28;20536;-76
2022/09/03 04:08:10;;;;;;;3.30;3.10;;;;;;;16.17;77.72;155514.88;5071941;28;20434;-76
2022/09/03 04:10:37;;;;;;;6.00;3.77;;;;;;;16.20;78.00;155522.66;5071545;28;20495;-76
2022/09/03 04:13:03;;;;;;;4.07;3.67;;;;;;;16.24;77.78;155533.06;5071477;28;20844;-76
2022/09/03 04:15:30;;;;;;;3.77;3.30;;;;;;;16.28;77.64;155543.47;5072910;28;20927;-76
2022/09/03 04:17:59;;;;;;;6.00;3.70;;;;;;;16.26;77.81;155539.56;5072846;28;20460;-76
2022/09/03 04:20:26;;;;;;;4.47;3.77;;;;;;;16.25;78.03;155536.97;5072453;28;20805;-77
2022/09/03 04:22:52;;;;;;;4.23;3.53;;;;;;;16.25;77.97;155536.97;5072738;28;20432;-77
2022/09/03 04:25:19;;;;;;;3.97;3.67;;;;;;;16.35;77.42;155562.97;5072670;28;20441;-76
2022/09/03 04:27:46;;;;;;;4.13;3.70;;;;;;;16.32;76.72;155553.84;5071284;28;20560;-76
2022/09/03 04:30:13;;;;;;;4.30;3.90;;;;;;;16.26;77.67;155539.56;5070849;28;20425;-77
2022/09/03 04:32:55;;;;;;;3.77;3.47;;;;;;;16.19;78.37;155520.03;5071363;28;20442;-76
2022/09/03 04:35:24;;;;;;;3.57;3.20;;;;;;;16.14;79.44;155507.06;5071312;28;20441;-76
2022/09/03 04:37:52;;;;;;;4.37;3.97;;;;;;;16.09;79.54;155495.38;5070560;28;20426;-77
2022/09/03 04:40:19;;;;;;;3.73;3.43;;;;;;;16.10;80.48;155496.63;5087755;28;20452;-76
2022/09/03 04:42:45;;;;;;;4.77;4.37;;;;;;;16.08;80.18;155491.44;5054482;28;20944;-76
2022/09/03 04:45:17;;;;;;;4.40;4.10;;;;;;;16.07;79.94;155490.13;5087863;28;20470;-76
2022/09/03 04:47:45;;;;;;;3.93;3.53;;;;;;;16.06;80.21;155486.25;5072232;28;20806;-76
2022/09/03 04:50:12;;;;;;;6.17;4.10;;;;;;;16.06;81.90;155486.25;5087385;28;20438;-76
2022/09/03 04:52:40;;;;;;;4.10;3.70;;;;;;;16.04;81.18;155481.06;5072520;28;20433;-76
2022/09/03 04:55:10;;;;;;;4.17;3.83;;;;;;;16.04;80.31;155482.38;5087687;28;20528;-76
2022/09/03 04:57:36;;;;;;;6.00;4.27;;;;;;;16.04;80.56;155482.38;5087936;28;20469;-76
2022/09/03 05:00:06;;;;;;;3.80;3.50;;;;;;;16.05;81.20;155484.94;5087739;28;20434;-76
2022/09/03 05:02:33;;;;;;;3.73;3.43;;;;;;;16.09;80.66;155494.06;5087740;28;20431;-76
2022/09/03 05:05:00;;;;;;;4.70;4.10;;;;;;;16.09;80.54;155495.38;5087602;28;20434;-77
2022/09/03 05:07:27;;;;;;;6.83;3.90;;;;;;;16.09;80.26;155494.06;5054070;28;20472;-77
2022/09/03 05:09:57;;;;;;;3.90;3.60;;;;;;;16.11;80.49;155500.56;5087148;28;20482;-76
2022/09/03 05:12:24;;;;;;;3.97;3.57;;;;;;;16.31;79.08;155551.25;5087510;28;20440;-76
2022/09/03 05:14:50;;;;;;;4.20;3.80;;;;;;;16.25;79.29;155535.66;5072216;28;20431;-76
2022/09/03 05:17:17;;;;;;;5.50;3.87;;;;;;;16.18;79.80;155517.44;5070751;28;20548;-77
2022/09/03 05:19:44;;;;;;;3.70;3.33;;;;;;;16.15;79.61;155509.66;5070175;28;20536;-77
2022/09/03 05:22:10;;;;;;;3.87;3.57;;;;;;;16.12;79.46;155501.88;5072683;28;20437;-77
2022/09/03 05:24:37;;;;;;;3.90;3.60;;;;;;;16.24;79.10;155533.06;5070031;28;20983;-77
2022/09/03 05:27:05;;;;;;;4.80;4.40;;;;;;;16.19;78.83;155520.03;5070242;28;20983;-76
2022/09/03 05:29:32;;;;;;;4.43;3.67;;;;;;;16.13;79.71;155504.44;5087006;28;20481;-77
2022/09/03 05:31:59;;;;;;;3.77;3.47;;;;;;;16.13;79.94;155505.75;5071884;28;20456;-76
2022/09/03 05:34:26;;;;;;;4.10;3.70;;;;;;;16.21;80.07;155525.25;5071609;28;20471;-76
2022/09/03 05:36:54;;;;;;;4.20;3.90;;;;;;;16.29;79.92;155546.06;5071814;28;20434;-76
2022/09/03 05:39:20;;;;;;;3.97;3.67;;;;;;;16.32;79.62;155553.84;5070286;28;20438;-76
2022/09/03 05:41:49;;;;;;;4.40;4.00;;;;;;;16.33;79.71;155556.47;5103979;28;20783;-77
2022/09/03 05:44:17;;;;;;;5.10;3.80;;;;;;;16.37;80.11;155566.84;5104086;28;20438;-77
2022/09/03 05:46:44;;;;;;;4.10;3.77;;;;;;;16.40;79.91;155574.66;5103840;28;20572;-76
2022/09/03 05:49:11;;;;;;;4.87;4.47;;;;;;;16.42;80.45;155579.88;5071848;28;20525;-77
2022/09/03 05:51:38;;;;;;;5.20;4.63;;;;;;;16.45;80.57;155587.66;5069963;28;20464;-76
2022/09/03 05:54:07;;;;;;;4.13;3.83;;;;;;;16.51;81.16;155601.97;5070536;28;20872;-76
2022/09/03 05:56:35;;;;;;;4.40;3.53;;;;;;;16.55;83.04;155613.72;5071499;28;20496;-77
2022/09/03 05:59:05;;;;;;;4.33;3.70;;;;;;;16.59;81.54;155622.84;5104244;28;20470;-77
2022/09/03 06:01:34;;;;;;;4.33;4.03;;;;;;;16.62;82.90;155631.97;5070059;28;20544;-76
2022/09/03 06:04:03;;;;;;;4.00;3.70;;;;;;;16.65;82.09;155638.47;5103867;28;20866;-77
2022/09/03 06:06:32;;;;;;;5.57;4.07;;;;;;;16.62;82.68;155630.66;5086923;28;20523;-77
2022/09/03 06:08:59;;;;;;;5.47;3.90;;;;;;;16.65;83.22;155638.47;5070122;28;20491;-76
2022/09/03 06:11:27;;;;;;;5.10;4.20;;;;;;;16.63;82.45;155633.22;5103497;28;20445;-77
2022/09/03 06:13:54;;;;;;;6.33;4.43;;;;;;;16.63;82.13;155633.22;5070093;28;20501;-77
2022/09/03 06:16:21;;;;;;;4.80;4.40;;;;;;;16.65;82.06;155638.47;5104194;28;20935;-76
2022/09/03 06:18:50;;;;;;;5.17;4.67;;;;;;;16.64;81.41;155637.16;5069875;28;20438;-77
2022/09/03 06:21:16;;;;;;;6.13;4.57;;;;;;;16.63;81.87;155634.53;5070675;28;20453;-77
2022/09/03 06:23:43;;;;;;;6.10;5.00;;;;;;;16.61;83.81;155629.34;5071217;28;20818;-76
2022/09/03 06:26:11;;;;;;;6.20;4.30;;;;;;;16.63;83.38;155634.53;5071044;28;20507;-77
2022/09/03 06:28:42;;;;;;;4.67;4.20;;;;;;;16.64;82.95;155637.16;5103476;28;20972;-76
2022/09/03 06:31:11;;;;;;;5.80;4.87;;;;;;;16.68;83.05;155647.53;5071001;28;20525;-77
2022/09/03 06:33:39;;;;;;;6.20;5.03;;;;;;;16.70;83.70;155652.78;5071247;28;20454;-77
2022/09/03 06:36:09;;;;;;;4.83;4.43;;;;;;;16.72;83.31;155656.66;5071348;28;20537;-76
2022/09/03 06:38:37;;;;;;;5.03;4.50;;;;;;;16.75;84.27;155665.78;5073367;28;20543;-77
2022/09/03 06:41:06;;;;;;;6.13;5.63;;;;;;;16.76;84.55;155668.38;5090077;28;20445;-77
2022/09/03 06:43:34;;;;;;;4.90;4.50;;;;;;;16.77;85.10;155670.97;5056766;28;20441;-76
2022/09/03 06:46:03;;;;;;;5.17;4.77;;;;;;;16.81;83.40;155681.38;5074952;28;20468;-77
2022/09/03 06:48:31;;;;;;;5.27;4.77;;;;;;;16.81;84.02;155681.38;5090093;28;20465;-77
2022/09/03 06:50:58;;;;;;;5.87;4.67;;;;;;;16.82;83.79;155682.69;5089790;28;20449;-76
2022/09/03 06:53:28;;;;;;;7.60;5.63;;;;;;;16.84;84.22;155689.19;5089960;28;20966;-77
2022/09/03 06:55:56;;;;;;;6.47;4.97;;;;;;;16.85;83.75;155691.81;5074303;28;20537;-77
2022/09/03 06:58:23;;;;;;;4.97;4.57;;;;;;;16.87;84.18;155697.00;5090252;28;20475;-76
2022/09/03 07:00:52;;;;;;;5.80;5.27;;;;;;;16.91;85.64;155706.13;5089550;28;20454;-77
2022/09/03 07:03:19;;;;;;;5.20;4.80;;;;;;;16.93;84.61;155712.63;5073016;28;20540;-77
2022/09/03 07:05:46;;;;;;;5.93;4.73;;;;;;;16.99;84.11;155726.94;5073151;28;20871;-76
2022/09/03 07:08:13;;;;;;;5.37;4.97;;;;;;;17.03;84.22;155738.63;5073097;28;20462;-76
2022/09/03 07:10:46;;;;;;;5.20;4.60;;;;;;;17.10;84.31;155755.56;5073819;28;20612;-76
2022/09/03 07:13:13;;;;;;;5.90;5.40;;;;;;;17.24;84.11;155791.97;5089651;28;20507;-77
2022/09/03 07:15:40;;;;;;;4.90;4.50;;;;;;;17.23;83.96;155789.41;5072666;28;20453;-76
2022/09/03 07:18:07;;;;;;;6.50;5.90;;;;;;;17.30;83.43;155807.63;5074091;28;20435;-77
2022/09/03 07:20:34;;;;;;;4.83;4.43;;;;;;;17.30;83.42;155806.28;5073545;28;21032;-77
2022/09/03 07:23:00;;;;;;;5.87;5.37;;;;;;;17.36;83.76;155821.94;5073941;28;20733;-77
2022/09/03 07:25:27;;;;;;;5.43;4.93;;;;;;;17.41;83.20;155836.25;5073970;28;20442;-77
2022/09/03 07:27:55;;;;;;;5.83;5.30;;;;;;;17.65;83.46;155897.47;5072617;28;20963;-76
2022/09/03 07:30:24;;;;;;;5.73;5.10;;;;;;;17.74;82.91;155919.63;5073211;28;20474;-77
2022/09/03 07:32:52;;;;;;;5.70;5.20;;;;;;;17.81;82.42;155939.16;5073840;28;20433;-77
2022/09/03 07:35:19;;;;;;;6.80;5.30;;;;;;;17.92;81.90;155966.50;5072462;28;20438;-77
2022/09/03 07:37:46;;;;;;;5.50;5.00;;;;;;;18.05;82.36;156001.66;5088384;28;20439;-77
2022/09/03 07:40:14;;;;;;;5.77;5.27;;;;;;;18.13;82.08;156022.50;5086003;28;20493;-77
2022/09/03 07:42:41;;;;;;;6.10;5.50;;;;;;;18.21;81.73;156043.28;5086018;28;20446;-76
2022/09/03 07:45:11;;;;;;;5.60;5.20;;;;;;;18.33;82.07;156071.94;5098046;28;20483;-77
2022/09/03 07:47:37;;;;;;;5.47;5.03;;;;;;;18.51;82.48;156118.88;5072932;28;20458;-76
2022/09/03 07:50:05;;;;;;;5.50;5.00;;;;;;;18.62;81.06;156148.84;5073204;28;20521;-76
2022/09/03 07:52:32;;;;;;;5.73;4.73;;;;;;;18.66;80.97;156159.31;5073441;28;20438;-77
2022/09/03 07:54:59;;;;;;;5.20;4.80;;;;;;;18.68;81.29;156163.19;5073410;28;20470;-77
2022/09/03 07:57:26;;;;;;;5.73;5.13;;;;;;;18.78;80.96;156189.22;5073079;28;20870;-77
2022/09/03 07:59:52;;;;;;;6.23;5.60;;;;;;;18.88;80.75;156215.28;5073316;28;20426;-74
2022/09/03 08:02:20;;;;;;;6.17;5.67;;;;;;;18.96;81.20;156236.13;5073044;28;20541;-76
2022/09/03 08:04:47;;;;;;;6.10;5.50;;;;;;;19.03;80.54;156253.09;5071965;28;20434;-76
2022/09/03 08:07:14;;;;;;;7.43;5.27;;;;;;;19.11;80.66;156275.25;5073326;28;20465;-76
2022/09/03 08:09:40;;;;;;;5.60;5.20;;;;;;;19.14;81.63;156283.03;5071650;28;20464;-76
2022/09/03 08:12:08;;;;;;;6.40;5.20;;;;;;;19.19;82.13;156296.13;5073166;28;20438;-76
2022/09/03 08:14:34;;;;;;;6.00;5.53;;;;;;;19.26;82.35;156314.34;5071574;28;20843;-76
2022/09/03 08:17:01;;;;;;;6.20;5.70;;;;;;;19.27;82.20;156316.91;5072779;28;20425;-76
2022/09/03 08:19:29;;;;;;;5.30;4.90;;;;;;;19.38;81.61;156345.66;5073176;28;20529;-74
2022/09/03 08:21:56;;;;;;;6.37;5.60;;;;;;;19.57;81.34;156392.56;5071257;28;20445;-76
2022/09/03 08:24:25;;;;;;;5.40;4.90;;;;;;;19.77;81.01;156446.06;5072860;28;20418;-75
2022/09/03 08:26:51;;;;;;;5.83;5.33;;;;;;;19.97;80.23;156496.88;5073077;28;20448;-76
2022/09/03 08:29:18;;;;;;;6.13;5.63;;;;;;;20.28;79.90;156576.50;5072673;28;20505;-76
2022/09/03 08:31:45;;;;;;;6.30;5.70;;;;;;;20.62;78.35;156666.47;5072028;28;20441;-76
2022/09/03 08:34:13;;;;;;;5.50;5.00;;;;;;;20.87;77.69;156730.41;5072470;28;20937;-76
2022/09/03 08:36:41;;;;;;;5.27;4.87;;;;;;;21.05;77.33;156776.06;5071656;28;20458;-76
2022/09/03 08:39:09;;;;;;;5.73;5.27;;;;;;;21.29;76.63;156838.78;5072520;28;20509;-76
2022/09/03 08:41:48;;;;;;;5.40;4.90;;;;;;;21.59;75.70;156917.13;5070860;28;20508;-76
2022/09/03 08:44:22;;;;;;;5.73;5.23;;;;;;;21.69;73.76;156943.22;5088033;28;20524;-76
2022/09/03 08:46:51;;;;;;;6.00;5.40;;;;;;;21.97;72.87;157013.78;5072800;28;20537;-76
2022/09/03 08:49:22;;;;;;;5.23;4.80;;;;;;;21.92;72.18;157002.03;5087912;28;20488;-76
2022/09/03 08:51:51;;;;;;;4.93;4.53;;;;;;;21.98;72.70;157016.38;5087234;28;20453;-76
2022/09/03 08:54:18;;;;;;;4.83;4.40;;;;;;;22.06;71.62;157037.25;5088054;28;20483;-76
2022/09/03 08:56:46;;;;;;;5.10;4.63;;;;;;;22.10;72.46;157047.72;5087514;28;21015;-76
2022/09/03 08:59:13;;;;;;;4.83;4.13;;;;;;;22.06;71.05;157037.25;5072225;28;20444;-77
2022/09/03 09:01:46;;;;;;;5.27;4.77;;;;;;;22.11;71.42;157051.63;5070313;28;20458;-77
2022/09/03 09:04:21;;;;;;;4.83;4.43;;;;;;;22.10;71.19;157049.06;5072084;28;20480;-77
2022/09/03 09:06:53;;;;;;;4.93;4.53;;;;;;;22.15;71.16;157060.78;5087799;28;20499;-76
2022/09/03 09:09:27;;;;;;;4.80;4.27;;;;;;;22.13;71.10;157055.56;5072052;28;21188;-77
2022/09/03 09:12:01;;;;;;;5.30;4.00;;;;;;;22.17;71.72;157066.00;5070315;28;20459;-76
2022/09/03 09:14:35;;;;;;;5.57;5.07;;;;;;;22.29;72.61;157097.38;5072186;28;20446;-76
2022/09/03 09:17:09;;;;;;;5.40;5.00;;;;;;;22.30;72.45;157099.94;5070751;28;20456;-76
2022/09/03 09:19:42;;;;;;;5.67;5.03;;;;;;;22.45;71.73;157139.16;5070592;28;20421;-76
2022/09/03 09:22:14;;;;;;;5.07;4.57;;;;;;;22.48;71.30;157146.97;5087265;28;20884;-76
2022/09/03 09:24:43;;;;;;;4.57;4.20;;;;;;;22.45;70.32;157140.44;5070562;28;20438;-76
2022/09/03 09:27:15;;;;;;;4.60;4.20;;;;;;;22.29;70.02;157097.38;5072122;28;20525;-76
2022/09/03 09:29:44;;;;;;;5.67;4.40;;;;;;;22.11;71.37;157050.31;5104141;28;20553;-77
2022/09/03 09:32:12;;;;;;;6.43;4.93;;;;;;;22.06;73.38;157037.25;5070206;28;20787;-77
2022/09/03 09:34:40;;;;;;;5.70;5.30;;;;;;;21.99;75.35;157019.00;5071964;28;20459;-76
2022/09/03 09:37:12;;;;;;;6.07;5.57;;;;;;;21.87;73.88;156987.69;5072200;28;21311;-76
2022/09/03 09:39:39;;;;;;;6.30;5.70;;;;;;;21.67;72.66;156936.69;5072112;28;20415;-76
2022/09/03 09:42:08;;;;;;;7.13;4.90;;;;;;;21.50;71.90;156893.59;5087317;28;20549;-76
2022/09/03 09:44:35;;;;;;;5.73;5.03;;;;;;;21.44;72.80;156876.66;5087388;28;20448;-76
2022/09/03 09:47:05;;;;;;;5.67;5.27;;;;;;;21.46;72.28;156883.19;5087712;28;20549;-76
2022/09/03 09:49:34;;;;;;;5.00;4.60;;;;;;;21.54;72.04;156904.06;5087656;28;20569;-76
2022/09/03 09:52:03;;;;;;;5.90;5.40;;;;;;;21.18;71.02;156810.09;5070342;28;20573;-76
2022/09/03 09:54:31;;;;;;;7.07;5.83;;;;;;;21.26;71.34;156830.94;5071886;28;20458;-76
2022/09/03 09:57:02;;;;;;;5.80;5.30;;;;;;;21.29;71.89;156837.50;5087486;28;20967;-76
2022/09/03 09:59:29;;;;;;;6.47;5.87;;;;;;;21.62;70.28;156923.63;5071758;28;20851;-76
2022/09/03 10:02:08;;;;;;;5.50;5.00;;;;;;;21.82;69.57;156977.16;5086937;28;20507;-76
2022/09/03 10:04:34;;;;;;;5.43;5.03;;;;;;;21.76;69.78;156960.22;5087119;28;20836;-76
2022/09/03 10:07:04;;;;;;;5.70;5.20;;;;;;;21.74;69.00;156956.25;5071954;28;20464;-76
2022/09/03 10:09:33;;;;;;;6.10;5.60;;;;;;;21.76;68.81;156961.47;5104394;28;20803;-76
2022/09/03 10:12:14;;;;;;;6.27;5.67;;;;;;;21.48;70.26;156887.06;5088349;28;20925;-76
2022/09/03 10:14:46;;;;;;;6.63;5.63;;;;;;;21.51;69.63;156896.22;5075345;28;20414;-76
2022/09/03 10:17:19;;;;;;;5.90;5.40;;;;;;;21.46;69.65;156883.19;5075412;28;20465;-74
2022/09/03 10:20:26;;;;;;;7.93;5.50;;;;;;;21.48;71.28;156887.06;5075219;28;20410;-74
2022/09/03 10:22:45;;;;;;;5.93;5.43;;;;;;;21.50;69.84;156893.59;5107357;28;20843;-74
2022/09/03 10:25:15;;;;;;;7.07;6.37;;;;;;;21.34;68.92;156850.56;5107634;28;20426;-74
2022/09/03 10:27:43;;;;;;;8.03;6.10;;;;;;;21.40;69.88;156867.50;5074829;28;20417;-74
2022/09/03 10:30:12;;;;;;;6.00;5.40;;;;;;;21.47;70.48;156885.75;5073678;28;20465;-74
2022/09/03 10:32:46;;;;;;;6.27;5.77;;;;;;;21.54;70.05;156904.06;5107278;28;20470;-75
2022/09/03 10:35:20;;;;;;;7.00;6.30;;;;;;;21.53;69.74;156901.44;5074453;28;20516;-75
2022/09/03 10:37:51;;;;;;;6.37;5.87;;;;;;;21.67;68.85;156938.00;5090549;28;20967;-74
2022/09/03 10:40:30;;;;;;;6.43;5.57;;;;;;;21.67;69.29;156936.69;5074874;28;20444;-75
2022/09/03 10:43:20;;;;;;;6.77;6.20;;;;;;;21.99;67.00;157019.00;5074391;28;20446;-75
2022/09/03 10:45:58;;;;;;;7.03;6.40;;;;;;;21.96;66.81;157011.16;5070384;28;20469;-75
2022/09/03 10:48:40;;;;;;;6.87;6.23;;;;;;;21.90;67.73;156995.47;5090040;28;20992;-75
2022/09/03 10:51:11;;;;;;;7.20;6.50;;;;;;;21.79;68.07;156969.31;5090035;28;20449;-75
2022/09/03 10:53:55;;;;;;;8.00;7.30;;;;;;;21.79;67.29;156968.00;5073230;28;20454;-75
2022/09/03 10:56:29;;;;;;;6.43;5.93;;;;;;;21.62;68.42;156924.97;5090333;28;20473;-75
2022/09/03 10:59:08;;;;;;;7.03;6.43;;;;;;;21.61;68.93;156922.31;5074856;28;20410;-75
2022/09/03 11:01:40;;;;;;;7.30;6.70;;;;;;;21.74;68.56;156956.25;5074376;28;20452;-75
2022/09/03 11:04:19;;;;;;;6.47;6.00;;;;;;;21.89;68.43;156992.88;5089978;28;20448;-75
2022/09/03 11:06:51;;;;;;;7.37;6.47;;;;;;;21.94;68.75;157007.25;5074848;28;20434;-75
2022/09/03 11:09:22;;;;;;;7.00;6.50;;;;;;;22.00;67.81;157021.63;5072808;28;20564;-75
2022/09/03 11:11:53;;;;;;;7.10;6.40;;;;;;;21.78;68.04;156966.75;5089866;28;20442;-75
2022/09/03 11:14:28;;;;;;;6.73;6.03;;;;;;;21.72;68.94;156951.06;5074374;28;20407;-75
2022/09/03 11:17:00;;;;;;;6.47;5.97;;;;;;;21.76;69.07;156961.47;5074549;28;20446;-75
2022/09/03 11:19:34;;;;;;;6.60;6.00;;;;;;;21.81;69.63;156973.25;5089645;28;20825;-75
2022/09/03 11:22:01;;;;;;;6.20;5.60;;;;;;;21.99;68.37;157019.00;5106494;28;20441;-75
2022/09/03 11:24:31;;;;;;;6.40;5.90;;;;;;;21.96;68.87;157012.47;5072884;28;20433;-75
2022/09/03 11:27:05;;;;;;;7.30;6.60;;;;;;;21.94;67.99;157005.94;5074456;28;20548;-75
2022/09/03 11:29:36;;;;;;;6.47;5.87;;;;;;;21.97;68.21;157013.78;5072864;28;20512;-75
2022/09/03 11:32:06;;;;;;;6.97;6.33;;;;;;;21.95;67.83;157008.56;5089308;28;20453;-75
2022/09/03 11:34:46;;;;;;;6.27;5.77;;;;;;;22.00;68.15;157021.63;5089148;28;20438;-75
2022/09/03 11:37:20;;;;;;;6.50;6.00;;;;;;;21.91;68.17;156998.09;5072891;28;20828;-75